Time;durP1;ratioP1;P1;durP2;ratioP2;P2;SDS_P1;SDS_P2;PMS_P1;PMS_P2;Temp;Humidity;BMP_temperature;BMP_pressure;BME280_temperature;BME280_humidity;BME280_pressure;Samples;Min_cycle;Max_cycle;Signal;HPM_P1;HPM_P2
2024/01/19 00:10:26;;;;;;;25.27;10.43;;;;;;;10.87;100.00;98588.28;30994050;28;20085;-79
2024/01/19 00:25:28;;;;;;;12.47;6.57;;;;;;;10.94;100.00;98594.16;31008285;28;20050;-78
2024/01/19 00:40:30;;;;;;;38.53;13.97;;;;;;;10.88;100.00;98589.78;31003268;28;20084;-78
2024/01/19 00:55:32;;;;;;;108.40;15.27;;;;;;;11.02;100.00;98589.16;30988421;28;20086;-78
2024/01/19 01:10:34;;;;;;;135.07;12.83;;;;;;;11.97;100.00;98560.63;30989858;28;20100;-78
2024/01/19 01:25:37;;;;;;;98.50;12.43;;;;;;;12.16;100.00;98617.16;30933792;28;20051;-79
2024/01/19 01:40:39;;;;;;;47.07;13.10;;;;;;;12.24;100.00;98612.13;30965021;28;20050;-79
2024/01/19 01:55:41;;;;;;;43.43;13.17;;;;;;;12.33;100.00;98603.88;30964248;28;20097;-78
2024/01/19 02:10:43;;;;;;;61.27;22.03;;;;;;;12.44;100.00;98593.22;30975884;28;20070;-78
2024/01/19 02:25:45;;;;;;;67.10;22.43;;;;;;;12.42;100.00;98609.25;31002095;28;20054;-78
2024/01/19 02:40:48;;;;;;;49.67;17.97;;;;;;;12.75;100.00;98627.44;30982881;28;20447;-77
2024/01/19 02:55:50;;;;;;;36.03;11.80;;;;;;;11.67;100.00;98579.53;31004298;28;20069;-77
2024/01/19 03:10:52;;;;;;;35.77;11.43;;;;;;;11.57;100.00;98567.22;31004625;28;20149;-79
2024/01/19 03:25:54;;;;;;;32.13;11.47;;;;;;;12.46;100.00;98615.28;30995781;28;20396;-77
2024/01/19 03:40:56;;;;;;;40.07;10.83;;;;;;;12.31;100.00;98666.16;30972161;28;20558;-77
2024/01/19 03:56:00;;;;;;;37.00;10.93;;;;;;;11.96;100.00;98614.28;30996209;28;20057;-76
2024/01/19 04:11:02;;;;;;;34.60;10.87;;;;;;;11.85;100.00;98609.34;30956196;28;20058;-75
2024/01/19 04:26:04;;;;;;;36.43;10.73;;;;;;;11.76;100.00;98616.78;30947664;28;20082;-75
2024/01/19 04:41:06;;;;;;;29.43;10.10;;;;;;;11.54;100.00;98622.50;30962652;28;20078;-77
2024/01/19 04:56:09;;;;;;;65.40;10.57;;;;;;;11.58;100.00;98640.09;30966304;28;20097;-78
2024/01/19 05:11:13;;;;;;;35.37;11.80;;;;;;;11.33;100.00;98637.06;30959238;28;20058;-77
2024/01/19 05:26:16;;;;;;;42.17;10.43;;;;;;;11.19;100.00;98652.78;30982496;28;20082;-77
2024/01/19 05:41:22;;;;;;;49.23;12.23;;;;;;;11.22;100.00;98660.03;30939812;28;20096;-78
2024/01/19 05:56:24;;;;;;;;;;;;;;;11.44;100.00;98694.38;30968077;28;20062;-77
2024/01/19 06:11:29;;;;;;;121.77;12.53;;;;;;;11.44;100.00;98702.53;30966328;28;20386;-78
2024/01/19 06:26:32;;;;;;;122.17;16.27;;;;;;;12.25;100.00;98749.66;30978732;28;20145;-76
2024/01/19 06:41:35;;;;;;;111.83;15.03;;;;;;;11.66;100.00;98738.38;30982709;28;20062;-76
2024/01/19 06:56:37;;;;;;;213.60;16.60;;;;;;;11.84;100.00;98765.53;31008785;28;20058;-78
2024/01/19 07:11:39;;;;;;;69.83;12.03;;;;;;;11.77;100.00;98765.13;31009310;28;20419;-76
2024/01/19 07:26:41;;;;;;;97.33;16.13;;;;;;;12.70;100.00;98810.50;30987700;28;20414;-78
2024/01/19 07:41:43;;;;;;;64.57;11.57;;;;;;;12.66;100.00;98815.34;30991251;28;20054;-78
2024/01/19 07:56:45;;;;;;;39.80;15.60;;;;;;;12.49;100.00;98823.91;30997185;28;20092;-77
2024/01/19 08:11:47;;;;;;;25.53;7.03;;;;;;;12.67;100.00;98871.31;30964756;28;20137;-77
2024/01/19 08:26:49;;;;;;;41.83;8.93;;;;;;;12.84;100.00;98880.59;30994490;28;20577;-77
2024/01/19 08:41:52;;;;;;;103.93;13.80;;;;;;;12.81;100.00;98904.03;30977214;28;20066;-79
2024/01/19 08:56:56;;;;;;;31.63;8.30;;;;;;;12.90;100.00;98881.47;30984511;28;20467;-79
2024/01/19 09:12:00;;;;;;;37.90;7.87;;;;;;;12.82;100.00;98878.31;30993388;28;20482;-77
2024/01/19 09:27:02;;;;;;;59.63;9.30;;;;;;;12.91;100.00;98864.66;31004349;28;20058;-77
2024/01/19 09:42:16;;;;;;;109.47;10.97;;;;;;;12.74;100.00;98855.38;31013073;28;20050;-77
2024/01/19 09:57:18;;;;;;;127.27;10.70;;;;;;;12.70;100.00;98854.06;31011301;28;20082;-78
2024/01/19 10:12:22;;;;;;;49.13;22.20;;;;;;;12.80;100.00;98858.97;30977353;28;20096;-78
2024/01/19 10:27:46;;;;;;;43.23;20.77;;;;;;;12.29;100.00;98818.25;31001225;28;20081;-80
2024/01/19 10:42:53;;;;;;;92.77;34.83;;;;;;;12.19;100.00;98806.66;30987467;28;20047;-77
2024/01/19 10:58:09;;;;;;;78.77;19.47;;;;;;;12.41;100.00;98790.09;31011808;28;20521;-76
2024/01/19 11:13:14;;;;;;;53.70;10.37;;;;;;;12.59;100.00;98805.53;30994969;28;20069;-77
2024/01/19 11:28:24;;;;;;;85.20;9.63;;;;;;;12.30;100.00;98822.47;31008483;28;20485;-76
2024/01/19 11:43:37;;;;;;;129.30;10.90;;;;;;;12.56;100.00;98799.06;30989021;28;20058;-77
2024/01/19 11:58:39;;;;;;;90.80;9.40;;;;;;;12.79;100.00;98769.56;31016283;28;20066;-85
2024/01/19 12:14:05;;;;;;;124.30;12.17;;;;;;;12.76;100.00;98782.13;31000561;28;20054;-85
2024/01/19 12:29:07;;;;;;;114.80;13.00;;;;;;;12.70;100.00;98800.34;31019654;28;20058;-78
2024/01/19 12:44:11;;;;;;;150.60;15.20;;;;;;;13.49;100.00;98846.22;30987458;28;20066;-78
2024/01/19 12:59:16;;;;;;;158.57;15.43;;;;;;;13.10;100.00;98821.69;30990527;28;20493;-79
2024/01/19 13:14:24;;;;;;;134.83;14.93;;;;;;;13.48;100.00;98822.91;30991516;28;20116;-83
2024/01/19 13:29:28;;;;;;;188.17;15.97;;;;;;;13.52;100.00;98861.66;30979632;28;20690;-78
2024/01/19 13:44:31;;;;;;;124.40;13.03;;;;;;;14.29;100.00;98916.06;31017841;28;20054;-80
2024/01/19 14:00:19;;;;;;;190.17;17.37;;;;;;;14.51;100.00;98943.75;31001995;28;20495;-83
2024/01/19 14:15:48;;;;;;;164.53;16.60;;;;;;;14.30;100.00;98928.50;30973253;28;20058;-78
2024/01/19 14:30:53;;;;;;;106.37;14.77;;;;;;;13.56;100.00;98927.66;31030148;28;20089;-82
2024/01/19 14:45:55;;;;;;;139.40;14.37;;;;;;;14.27;100.00;98951.28;31038754;28;20096;-81
2024/01/19 15:00:58;;;;;;;81.00;12.80;;;;;;;14.25;100.00;98959.19;31029227;28;20491;-78
2024/01/19 15:16:00;;;;;;;132.67;13.10;;;;;;;14.35;100.00;98957.88;31008224;28;20062;-79
2024/01/19 15:31:03;;;;;;;112.67;11.27;;;;;;;14.62;100.00;98982.19;30994167;28;20065;-78
2024/01/19 15:46:23;;;;;;;150.63;13.60;;;;;;;13.67;100.00;98938.81;31026758;28;20060;-78
2024/01/19 16:01:25;;;;;;;149.60;13.30;;;;;;;13.38;100.00;98914.19;30985439;28;20097;-77
2024/01/19 16:16:27;;;;;;;212.50;15.97;;;;;;;14.00;100.00;98949.56;30983504;28;20074;-78
2024/01/19 16:31:29;;;;;;;201.67;18.13;;;;;;;14.04;100.00;98954.84;30994139;28;20058;-79
2024/01/19 16:46:32;;;;;;;147.07;15.73;;;;;;;13.36;100.00;98925.53;31002955;28;20054;-81
2024/01/19 17:17:54;;;;;;;102.57;12.80;;;;;;;14.13;100.00;98979.31;30975473;28;20116;-78
2024/01/19 17:32:56;;;;;;;97.50;17.80;;;;;;;14.17;100.00;98999.00;30983173;28;20841;-77
2024/01/19 17:47:58;;;;;;;102.27;33.70;;;;;;;14.12;100.00;99013.28;30960680;28;20080;-77
2024/01/19 18:03:05;;;;;;;47.23;19.23;;;;;;;13.93;100.00;99005.25;30997626;28;20059;-79
2024/01/19 18:18:07;;;;;;;39.13;13.70;;;;;;;13.14;100.00;98991.22;30995656;28;20108;-78
2024/01/19 18:33:25;;;;;;;204.67;20.73;;;;;;;12.96;100.00;98980.41;30967832;28;20053;-77
2024/01/19 18:48:28;;;;;;;32.00;11.90;;;;;;;12.04;100.00;99028.09;31008192;28;20149;-82
2024/01/19 19:03:30;;;;;;;25.03;12.30;;;;;;;11.17;100.00;99051.75;31014777;28;20499;-79
2024/01/19 19:18:32;;;;;;;26.87;14.07;;;;;;;11.85;100.00;99079.75;30980721;28;20054;-79
2024/01/19 19:33:36;;;;;;;47.37;21.13;;;;;;;11.53;100.00;99099.28;30991782;28;20058;-80
2024/01/19 19:48:38;;;;;;;46.17;17.67;;;;;;;10.29;100.00;99090.31;31000457;28;20425;-79
2024/01/19 20:03:41;;;;;;;51.30;21.03;;;;;;;10.69;100.00;99098.56;31002087;28;20061;-81
2024/01/19 20:19:07;;;;;;;38.87;16.20;;;;;;;10.47;100.00;99128.44;31006807;28;20054;-81
2024/01/19 20:34:10;;;;;;;21.27;10.53;;;;;;;10.33;100.00;99170.38;30983554;28;20130;-78
2024/01/19 20:49:13;;;;;;;13.07;6.60;;;;;;;10.03;100.00;99181.81;30987469;28;20096;-78
2024/01/19 21:04:15;;;;;;;14.63;7.17;;;;;;;9.93;100.00;99176.28;30983281;28;20053;-77
2024/01/19 21:19:17;;;;;;;12.90;6.03;;;;;;;9.72;100.00;99212.16;30977461;28;20060;-75
2024/01/19 21:34:19;;;;;;;16.57;8.93;;;;;;;9.72;100.00;99209.47;30984845;28;23512;-74
2024/01/19 21:49:22;;;;;;;17.27;9.43;;;;;;;9.51;100.00;99210.09;30959564;28;20744;-76
2024/01/19 22:04:24;;;;;;;18.60;10.17;;;;;;;9.66;100.00;99254.56;30980996;28;20521;-75
2024/01/19 22:19:26;;;;;;;15.17;7.43;;;;;;;9.52;100.00;99260.38;30998031;28;20064;-75
2024/01/19 22:34:28;;;;;;;17.67;7.60;;;;;;;8.52;100.00;99271.16;31022276;28;20050;-74
2024/01/19 22:49:30;;;;;;;22.80;8.93;;;;;;;8.92;100.00;99275.59;30969059;28;20066;-74
2024/01/19 23:04:32;;;;;;;21.50;9.70;;;;;;;8.94;100.00;99314.59;30971198;28;20149;-76
2024/01/19 23:19:35;;;;;;;24.77;8.87;;;;;;;8.93;100.00;99345.53;30972399;28;20059;-74
2024/01/19 23:34:37;;;;;;;21.23;9.67;;;;;;;8.96;100.00;99366.34;30987091;28;20155;-75
2024/01/19 23:49:40;;;;;;;27.90;10.57;;;;;;;8.85;100.00;99419.97;30995055;28;20061;-76
